createdAt,value
2018-06-13T00:01:11.246Z,96184.19
2018-06-13T00:06:05.804Z,96180.77
2018-06-13T00:11:00.221Z,96180.21
2018-06-13T00:15:54.773Z,96174.94
2018-06-13T00:20:49.191Z,96175.85
2018-06-13T00:25:44.800Z,96176.91
2018-06-13T00:30:39.232Z,96174.23
2018-06-13T00:35:33.621Z,96176.60
2018-06-13T00:40:28.021Z,96177.73
2018-06-13T00:45:22.470Z,96172.77
2018-06-13T00:50:16.889Z,96171.19
2018-06-13T00:55:11.296Z,96172.77
2018-06-13T01:00:06.090Z,96167.47
2018-06-13T01:05:00.512Z,96164.28
2018-06-13T01:09:54.940Z,96157.34
2018-06-13T01:14:49.369Z,96163.73
2018-06-13T01:19:43.785Z,96166.83
2018-06-13T01:24:38.181Z,96159.29
2018-06-13T01:29:32.734Z,96158.77
2018-06-13T01:34:27.126Z,96152.69
2018-06-13T01:39:21.561Z,96152.12
2018-06-13T01:44:15.964Z,96145.20
2018-06-13T01:49:10.386Z,96148.84
2018-06-13T01:54:04.791Z,96146.98
2018-06-13T01:58:59.209Z,96160.23
2018-06-13T02:03:53.602Z,96158.25
2018-06-13T02:08:48.007Z,96159.73
2018-06-13T02:13:42.413Z,96152.89
2018-06-13T02:18:36.833Z,96155.15
2018-06-13T02:23:31.297Z,96156.52
2018-06-13T02:28:25.701Z,96159.55
2018-06-13T02:33:20.097Z,96169.61
2018-06-13T02:38:14.496Z,96169.04
2018-06-13T02:43:08.919Z,96173.81
2018-06-13T02:48:03.320Z,96167.47
2018-06-13T02:52:57.724Z,96163.30
2018-06-13T02:57:52.165Z,96164.62
2018-06-13T03:02:46.557Z,96177.36
2018-06-13T03:07:40.984Z,96180.28
2018-06-13T03:12:35.379Z,96184.84
2018-06-13T03:17:29.809Z,96191.76
2018-06-13T03:22:24.237Z,96195.77
2018-06-13T03:27:18.670Z,96197.62
2018-06-13T03:32:13.086Z,96200.55
2018-06-13T03:37:07.525Z,96199.73
2018-06-13T03:42:01.921Z,96206.38
2018-06-13T03:46:56.348Z,96200.56
2018-06-13T03:51:50.750Z,96210.11
2018-06-13T03:56:45.164Z,96213.30
2018-06-13T04:01:39.644Z,96221.00
2018-06-13T04:06:34.060Z,96227.59
2018-06-13T04:11:28.512Z,96235.80
2018-06-13T04:16:23.024Z,96232.37
2018-06-13T04:21:17.432Z,96236.85
2018-06-13T04:26:11.848Z,96245.32
2018-06-13T04:31:06.329Z,96250.84
2018-06-13T04:36:00.725Z,96249.50
2018-06-13T04:40:55.179Z,96248.72
2018-06-13T04:45:49.645Z,96264.58
2018-06-13T04:50:44.066Z,96270.38
2018-06-13T04:55:38.466Z,96280.13
2018-06-13T05:00:32.856Z,96281.67
2018-06-13T05:05:27.312Z,96284.80
2018-06-13T05:10:21.736Z,96297.16
2018-06-13T05:15:16.197Z,96301.59
2018-06-13T05:20:10.636Z,96305.27
2018-06-13T05:25:05.214Z,96309.29
2018-06-13T05:29:59.668Z,96318.25
2018-06-13T05:34:54.280Z,96320.04
2018-06-13T05:39:49.042Z,96327.20
2018-06-13T05:44:43.549Z,96330.41
2018-06-13T05:49:37.938Z,96333.48
2018-06-13T05:54:32.382Z,96342.30
2018-06-13T05:59:26.799Z,96341.05
2018-06-13T06:04:21.189Z,96349.13
2018-06-13T06:09:15.578Z,96354.13
2018-06-13T06:14:09.994Z,96366.19
2018-06-13T06:19:04.569Z,96368.24
2018-06-13T06:23:59.529Z,96371.86
2018-06-13T06:28:55.311Z,96378.94
2018-06-13T06:33:49.840Z,96385.83
2018-06-13T06:38:44.311Z,96393.59
2018-06-13T06:43:39.602Z,96404.03
2018-06-13T06:48:40.624Z,96410.68
2018-06-13T06:53:35.282Z,96412.13
2018-06-13T06:58:30.946Z,96418.01
2018-06-13T07:03:25.421Z,96428.24
2018-06-13T07:08:19.809Z,96436.96
2018-06-13T07:13:14.752Z,96450.84
2018-06-13T07:18:09.349Z,96462.41
2018-06-13T07:23:05.468Z,96469.41
2018-06-13T07:28:02.368Z,96473.70
2018-06-13T07:32:56.936Z,96476.48
2018-06-13T07:37:51.340Z,96486.63
2018-06-13T07:42:46.040Z,96488.29
2018-06-13T07:47:43.260Z,96503.94
2018-06-13T07:52:37.689Z,96501.89
2018-06-13T07:57:32.802Z,96505.34
2018-06-13T08:02:27.232Z,96514.21
2018-06-13T08:07:22.521Z,96523.15
2018-06-13T08:12:22.356Z,96530.67
2018-06-13T08:17:21.189Z,96541.42
2018-06-13T08:22:33.409Z,96547.20
2018-06-13T08:27:27.877Z,96545.97
2018-06-13T08:32:33.624Z,96546.83
2018-06-13T08:37:28.451Z,96559.45
2018-06-13T08:42:23.213Z,96564.94
2018-06-13T08:47:17.971Z,96565.59
2018-06-13T08:52:12.408Z,96567.47
2018-06-13T08:57:07.016Z,96575.88
2018-06-13T09:02:01.653Z,96583.03
2018-06-13T09:06:55.801Z,96591.86
2018-06-13T09:11:50.554Z,96592.41
2018-06-13T09:16:44.747Z,96600.21
2018-06-13T09:21:40.376Z,96603.22
2018-06-13T09:26:34.891Z,96612.64
2018-06-13T09:31:29.258Z,96613.77
2018-06-13T09:36:23.880Z,96618.59
2018-06-13T09:41:18.445Z,96617.17
2018-06-13T09:46:13.007Z,96625.06
2018-06-13T09:51:07.590Z,96631.23
2018-06-13T09:56:02.115Z,96635.19
2018-06-13T10:01:01.855Z,96644.02
2018-06-13T10:05:56.515Z,96639.34
2018-06-13T10:10:51.684Z,96640.09
2018-06-13T10:15:46.700Z,96649.88
2018-06-13T10:20:50.424Z,96659.94
2018-06-13T10:25:51.840Z,96660.45
2018-06-13T10:30:53.570Z,96659.67
2018-06-13T10:35:52.617Z,96663.67
2018-06-13T10:40:54.267Z,96661.36
2018-06-13T10:46:14.154Z,96667.70
2018-06-13T10:51:19.685Z,96675.13
2018-06-13T10:56:22.796Z,96677.50
2018-06-13T11:01:17.591Z,96676.67
2018-06-13T11:06:12.118Z,96678.78
2018-06-13T11:13:13.738Z,96680.91
2018-06-13T11:18:08.576Z,96688.86
2018-06-13T11:23:03.078Z,96685.17
2018-06-13T11:27:57.609Z,96696.79
2018-06-13T11:32:52.078Z,96701.52
2018-06-13T11:37:46.532Z,96702.56
2018-06-13T11:42:41.353Z,96699.66
2018-06-13T11:47:37.104Z,96703.16
2018-06-13T11:52:31.625Z,96700.33
2018-06-13T11:57:27.071Z,96699.29
2018-06-13T12:02:21.716Z,96705.63
2018-06-13T12:07:16.148Z,96700.83
2018-06-13T12:12:10.594Z,96698.41
2018-06-13T12:17:05.298Z,96694.48
2018-06-13T12:21:59.917Z,96687.55
2018-06-13T12:26:54.522Z,96696.55
2018-06-13T12:31:49.048Z,96698.69
2018-06-13T12:36:43.586Z,96706.55
2018-06-13T12:41:38.160Z,96696.22
2018-06-13T12:46:32.665Z,96699.65
2018-06-13T12:51:27.281Z,96711.08
2018-06-13T12:56:21.856Z,96705.08
2018-06-13T13:01:17.249Z,96702.20
2018-06-13T13:06:11.701Z,96710.94
2018-06-13T13:11:06.862Z,96713.07
2018-06-13T13:16:01.505Z,96718.38
2018-06-13T13:20:56.931Z,96715.73
2018-06-13T13:25:52.641Z,96719.75
2018-06-13T13:30:47.123Z,96727.42
2018-06-13T13:35:41.824Z,96724.23
2018-06-13T13:40:45.984Z,96725.05
2018-06-13T13:45:40.814Z,96725.28
2018-06-13T13:50:35.696Z,96736.95
2018-06-13T13:55:30.188Z,96735.04
2018-06-13T14:00:24.761Z,96737.12
2018-06-13T14:05:19.334Z,96758.30
2018-06-13T14:10:13.816Z,96763.66
2018-06-13T14:15:08.444Z,96764.48
2018-06-13T14:20:03.909Z,96770.30
2018-06-13T14:24:58.353Z,96769.55
2018-06-13T14:29:52.936Z,96760.13
2018-06-13T14:34:48.509Z,96761.53
2018-06-13T14:39:42.976Z,96758.49
2018-06-13T14:46:06.925Z,96762.71
2018-06-13T14:51:01.532Z,96770.13
2018-06-13T14:56:01.053Z,96770.84
2018-06-13T15:00:55.565Z,96772.59
2018-06-13T15:05:50.097Z,96772.81
2018-06-13T15:10:44.960Z,96772.34
2018-06-13T15:15:39.617Z,96774.77
2018-06-13T15:20:34.290Z,96775.62
2018-06-13T15:25:31.724Z,96777.53
2018-06-13T15:30:28.756Z,96782.72
2018-06-13T15:35:23.364Z,96780.42
2018-06-13T15:40:17.857Z,96779.92
2018-06-13T15:45:12.422Z,96780.78
2018-06-13T15:50:06.988Z,96779.91
2018-06-13T15:55:01.612Z,96793.39
2018-06-13T15:59:56.062Z,96789.91
2018-06-13T16:04:50.673Z,96802.09
2018-06-13T16:09:45.135Z,96795.45
2018-06-13T16:14:39.633Z,96795.49
2018-06-13T16:19:34.189Z,96815.91
2018-06-13T16:24:28.690Z,96811.92
2018-06-13T16:29:23.257Z,96817.77
2018-06-13T16:34:17.774Z,96811.90
2018-06-13T16:39:12.234Z,96811.62
2018-06-13T16:44:06.987Z,96822.50
2018-06-13T16:49:01.417Z,96831.74
2018-06-13T16:54:14.112Z,96837.51
2018-06-13T16:59:08.570Z,96841.17
2018-06-13T17:04:03.064Z,96836.66
2018-06-13T17:08:57.481Z,96837.23
2018-06-13T17:13:51.955Z,96833.52
2018-06-13T17:18:46.419Z,96841.17
2018-06-13T17:23:40.650Z,96835.34
2018-06-13T17:28:35.298Z,96839.60
2018-06-13T17:33:29.940Z,96851.55
2018-06-13T17:38:24.313Z,96861.02
2018-06-13T17:43:18.960Z,96866.28
2018-06-13T17:48:13.466Z,96870.52
2018-06-13T17:53:07.881Z,96882.42
2018-06-13T17:58:02.925Z,96885.59
2018-06-13T18:02:57.360Z,96886.42
2018-06-13T18:07:51.876Z,96889.05
2018-06-13T18:12:46.334Z,96883.77
2018-06-13T18:17:40.767Z,96884.80
2018-06-13T18:22:35.309Z,96880.02
2018-06-13T18:27:29.928Z,96894.02
2018-06-13T18:32:24.352Z,96900.30
2018-06-13T18:37:18.859Z,96900.01
2018-06-13T18:42:13.296Z,96907.65
2018-06-13T18:47:07.766Z,96918.20
2018-06-13T18:52:02.307Z,96914.73
2018-06-13T18:56:58.813Z,96916.81
2018-06-13T19:01:53.270Z,96917.05
2018-06-13T19:06:47.712Z,96927.47
2018-06-13T19:11:42.483Z,96927.70
2018-06-13T19:16:36.880Z,96927.69
2018-06-13T19:21:31.443Z,96928.42
2018-06-13T19:26:26.000Z,96936.58
2018-06-13T19:31:20.489Z,96940.24
2018-06-13T19:36:14.967Z,96941.94
2018-06-13T19:41:09.461Z,96958.22
2018-06-13T19:46:03.892Z,96965.30
2018-06-13T19:50:58.375Z,96974.74
2018-06-13T19:55:57.996Z,96982.05
2018-06-13T20:00:52.533Z,96989.91
2018-06-13T20:05:47.035Z,97005.22
2018-06-13T20:10:42.270Z,97007.27
2018-06-13T20:17:46.173Z,97008.90
2018-06-13T20:22:40.656Z,97024.43
2018-06-13T20:27:40.453Z,97021.63
2018-06-13T20:32:35.537Z,97014.61
2018-06-13T20:37:29.973Z,97029.41
2018-06-13T20:42:24.524Z,97030.98
2018-06-13T20:47:18.926Z,97026.30
2018-06-13T20:52:13.436Z,97027.52
2018-06-13T20:57:07.655Z,97033.70
2018-06-13T21:02:02.106Z,97028.98
2018-06-13T21:06:56.525Z,97034.88
2018-06-13T21:11:50.969Z,97027.35
2018-06-13T21:16:45.450Z,97024.67
2018-06-13T21:21:39.864Z,97024.60
2018-06-13T21:26:34.372Z,97026.60
2018-06-13T21:31:28.776Z,97026.99
2018-06-13T21:36:23.328Z,97027.67
2018-06-13T21:41:17.790Z,97025.67
2018-06-13T21:46:12.297Z,97017.19
2018-06-13T21:51:07.101Z,97011.23
2018-06-13T21:56:01.595Z,97012.20
2018-06-13T22:00:56.073Z,97014.94
2018-06-13T22:05:50.508Z,97010.41
2018-06-13T22:10:44.934Z,97015.44
2018-06-13T22:15:39.460Z,97005.45
2018-06-13T22:20:34.014Z,97015.41
2018-06-13T22:25:28.613Z,97009.20
2018-06-13T22:30:23.163Z,97006.53
2018-06-13T22:35:17.634Z,97005.31
2018-06-13T22:40:12.093Z,97012.27
2018-06-13T22:45:06.724Z,97006.41
2018-06-13T22:50:01.165Z,96997.43
2018-06-13T22:54:56.464Z,96994.22
2018-06-13T22:59:50.963Z,96992.25
2018-06-13T23:04:45.413Z,96993.50
2018-06-13T23:09:39.991Z,96995.73
2018-06-13T23:14:34.570Z,96995.20
2018-06-13T23:19:29.388Z,96994.47
2018-06-13T23:24:23.829Z,96991.33
2018-06-13T23:29:18.284Z,97000.31
2018-06-13T23:34:12.782Z,97002.38
2018-06-13T23:39:08.976Z,97002.78
2018-06-13T23:44:03.805Z,96996.81
2018-06-13T23:48:58.252Z,96990.55
2018-06-13T23:53:52.777Z,96990.14
2018-06-13T23:58:47.327Z,96988.98
